createdAt,value
2022-12-25T00:01:07.641Z,95749.91
2022-12-25T00:03:35.439Z,95757.69
2022-12-25T00:06:02.959Z,95769.66
2022-12-25T00:08:30.596Z,95756.97
2022-12-25T00:10:59.348Z,95720.56
2022-12-25T00:13:26.993Z,95743.13
2022-12-25T00:15:54.662Z,95742.34
2022-12-25T00:18:24.269Z,95751.16
2022-12-25T00:20:59.152Z,95742.81
2022-12-25T00:23:27.266Z,95733.88
2022-12-25T00:25:55.283Z,95722.88
2022-12-25T00:28:24.351Z,95744.56
2022-12-25T00:30:52.462Z,95749.50
2022-12-25T00:33:19.950Z,95759.41
2022-12-25T00:36:00.529Z,95756.59
2022-12-25T00:38:28.769Z,95748.34
2022-12-25T00:40:56.212Z,95749.34
2022-12-25T00:43:25.044Z,95750.31
2022-12-25T00:45:56.921Z,95761.63
2022-12-25T00:48:25.055Z,95757.31
2022-12-25T00:50:54.941Z,95752.81
2022-12-25T00:53:24.200Z,95752.72
2022-12-25T00:55:52.910Z,95760.19
2022-12-25T00:58:20.586Z,95755.00
2022-12-25T01:00:48.693Z,95753.19
2022-12-25T01:03:17.327Z,95742.25
2022-12-25T01:05:45.482Z,95752.19
2022-12-25T01:08:13.116Z,95746.97
2022-12-25T01:10:40.935Z,95746.97
2022-12-25T01:13:08.624Z,95742.81
2022-12-25T01:15:37.522Z,95737.13
2022-12-25T01:18:07.918Z,95750.34
2022-12-25T01:20:36.247Z,95759.97
2022-12-25T01:23:03.688Z,95762.56
2022-12-25T01:25:31.154Z,95752.88
2022-12-25T01:27:59.954Z,95755.31
2022-12-25T01:30:27.484Z,95758.41
2022-12-25T01:32:54.979Z,95762.50
2022-12-25T01:35:22.437Z,95754.69
2022-12-25T01:37:50.874Z,95754.16
2022-12-25T01:40:18.405Z,95755.66
2022-12-25T01:42:45.881Z,95741.78
2022-12-25T01:45:34.620Z,95723.59
2022-12-25T01:48:05.640Z,95734.78
2022-12-25T01:50:34.282Z,95711.19
2022-12-25T01:53:01.823Z,95739.66
2022-12-25T01:55:30.082Z,95739.13
2022-12-25T01:57:57.840Z,95744.25
2022-12-25T02:00:25.305Z,95733.88
2022-12-25T02:02:54.246Z,95731.41
2022-12-25T02:05:26.832Z,95749.94
2022-12-25T02:07:55.262Z,95731.50
2022-12-25T02:10:23.073Z,95744.88
2022-12-25T02:12:50.965Z,95746.78
2022-12-25T02:15:20.758Z,95754.47
2022-12-25T02:18:01.010Z,95756.06
2022-12-25T02:20:52.839Z,95749.50
2022-12-25T02:23:48.184Z,95766.13
2022-12-25T02:26:24.277Z,95773.44
2022-12-25T02:29:01.702Z,95780.44
2022-12-25T02:31:37.044Z,95773.34
2022-12-25T02:34:12.536Z,95786.66
2022-12-25T02:36:46.316Z,95783.81
2022-12-25T02:39:42.108Z,95789.56
2022-12-25T02:42:15.039Z,95772.66
2022-12-25T02:45:16.639Z,95765.63
2022-12-25T02:48:01.823Z,95764.41
2022-12-25T02:50:55.387Z,95763.69
2022-12-25T02:53:40.612Z,95754.56
2022-12-25T02:56:25.989Z,95767.53
2022-12-25T02:59:11.201Z,95770.91
2022-12-25T03:01:59.285Z,95780.81
2022-12-25T03:04:45.975Z,95770.44
2022-12-25T03:07:18.000Z,95762.66
2022-12-25T03:10:07.439Z,95712.31
2022-12-25T03:12:43.175Z,95770.53
2022-12-25T03:15:31.242Z,95764.31
2022-12-25T03:18:04.168Z,95751.03
2022-12-25T03:20:50.066Z,95757.47
2022-12-25T03:23:39.662Z,95756.78
2022-12-25T03:26:25.874Z,95751.56
2022-12-25T03:28:53.320Z,95744.25
2022-12-25T03:31:25.778Z,95743.25
2022-12-25T03:34:27.747Z,95748.44
2022-12-25T03:37:15.557Z,95743.78
2022-12-25T03:40:05.952Z,95727.34
2022-12-25T03:43:01.961Z,95713.25
2022-12-25T03:45:54.506Z,95707.34
2022-12-25T03:48:41.091Z,95708.22
2022-12-25T03:51:31.517Z,95701.88
2022-12-25T03:54:21.288Z,95695.97
2022-12-25T03:57:07.175Z,95705.41
2022-12-25T03:59:58.452Z,95712.16
2022-12-25T04:02:43.772Z,95696.50
2022-12-25T04:05:29.114Z,95697.06
2022-12-25T04:08:15.652Z,95709.34
2022-12-25T04:11:00.915Z,95713.97
2022-12-25T04:13:46.180Z,95692.81
2022-12-25T04:16:33.305Z,95704.00
2022-12-25T04:19:29.866Z,95705.41
2022-12-25T04:22:14.649Z,95710.91
2022-12-25T04:25:01.171Z,95714.03
2022-12-25T04:27:46.349Z,95669.06
2022-12-25T04:30:31.631Z,95717.03
2022-12-25T04:33:17.406Z,95709.34
2022-12-25T04:36:05.052Z,95705.56
2022-12-25T04:38:32.815Z,95718.16
2022-12-25T04:41:02.693Z,95717.13
2022-12-25T04:43:30.433Z,95730.88
2022-12-25T04:45:59.515Z,95725.22
2022-12-25T04:48:28.493Z,95717.66
2022-12-25T04:50:56.198Z,95720.03
2022-12-25T04:53:24.083Z,95706.41
2022-12-25T04:55:51.565Z,95708.59
2022-12-25T04:58:20.352Z,95690.28
2022-12-25T05:00:47.813Z,95699.44
2022-12-25T05:03:15.369Z,95699.66
2022-12-25T05:05:42.895Z,95698.63
2022-12-25T05:08:11.364Z,95695.72
2022-12-25T05:10:41.103Z,95706.81
2022-12-25T05:13:08.590Z,95671.72
2022-12-25T05:15:40.309Z,95688.09
2022-12-25T05:18:07.877Z,95680.78
2022-12-25T05:20:39.941Z,95683.38
2022-12-25T05:23:08.007Z,95677.09
2022-12-25T05:25:35.544Z,95666.22
2022-12-25T05:28:03.006Z,95670.81
2022-12-25T05:30:30.447Z,95667.41
2022-12-25T05:32:59.236Z,95669.69
2022-12-25T05:35:26.708Z,95670.19
2022-12-25T05:37:54.158Z,95665.59
2022-12-25T05:40:21.603Z,95615.69
2022-12-25T05:42:49.087Z,95665.53
2022-12-25T05:45:16.627Z,95665.53
2022-12-25T05:47:44.107Z,95668.34
2022-12-25T05:50:13.043Z,95636.44
2022-12-25T05:52:40.578Z,95661.13
2022-12-25T05:55:08.814Z,95662.13
2022-12-25T05:57:37.102Z,95641.56
2022-12-25T06:00:05.569Z,95618.81
2022-12-25T06:02:33.255Z,95641.69
2022-12-25T06:05:00.893Z,95636.09
2022-12-25T06:07:29.791Z,95636.91
2022-12-25T06:09:57.288Z,95642.41
2022-12-25T06:12:24.786Z,95639.81
2022-12-25T06:14:52.245Z,95609.47
2022-12-25T06:17:19.689Z,95616.69
2022-12-25T06:19:47.132Z,95636.97
2022-12-25T06:22:14.669Z,95622.03
2022-12-25T06:24:43.537Z,95577.41
2022-12-25T06:27:11.003Z,95619.59
2022-12-25T06:29:38.454Z,95626.28
2022-12-25T06:32:06.247Z,95627.84
2022-12-25T06:34:33.765Z,95620.63
2022-12-25T06:37:01.201Z,95626.59
2022-12-25T06:39:28.616Z,95615.13
2022-12-25T06:41:57.447Z,95595.53
2022-12-25T06:44:25.054Z,95607.56
2022-12-25T06:46:53.654Z,95604.50
2022-12-25T06:49:21.469Z,95597.72
2022-12-25T06:51:48.922Z,95595.06
2022-12-25T06:54:16.401Z,95605.53
2022-12-25T06:56:43.868Z,95579.44
2022-12-25T06:59:12.729Z,95588.69
2022-12-25T07:01:46.672Z,95576.44
2022-12-25T07:04:17.738Z,95578.72
2022-12-25T07:06:45.182Z,95547.69
2022-12-25T07:09:12.655Z,95569.25
2022-12-25T07:11:40.104Z,95565.09
2022-12-25T07:14:07.557Z,95570.28
2022-12-25T07:16:36.406Z,95556.22
2022-12-25T07:19:04.022Z,95544.53
2022-12-25T07:21:31.483Z,95546.09
2022-12-25T07:23:58.930Z,95496.63
2022-12-25T07:26:26.391Z,95548.91
2022-12-25T07:28:53.894Z,95569.50
2022-12-25T07:31:21.389Z,95587.19
2022-12-25T07:33:50.222Z,95596.00
2022-12-25T07:36:17.690Z,95592.13
2022-12-25T07:38:48.637Z,95570.22
2022-12-25T07:41:16.398Z,95554.34
2022-12-25T07:43:44.184Z,95566.66
2022-12-25T07:46:12.243Z,95579.63
2022-12-25T07:48:39.706Z,95582.56
2022-12-25T07:51:12.621Z,95579.16
2022-12-25T07:53:40.911Z,95589.88
2022-12-25T07:56:11.768Z,95570.91
2022-12-25T07:58:39.504Z,95563.59
2022-12-25T08:01:10.816Z,95571.91
2022-12-25T08:03:38.787Z,95563.03
2022-12-25T08:06:10.255Z,95568.84
2022-12-25T08:08:39.984Z,95548.94
2022-12-25T08:11:08.283Z,95557.16
2022-12-25T08:13:36.326Z,95571.75
2022-12-25T08:16:05.584Z,95582.38
2022-12-25T08:18:33.186Z,95574.84
2022-12-25T08:21:03.513Z,95563.09
2022-12-25T08:23:34.587Z,95575.66
2022-12-25T08:26:05.420Z,95567.34
2022-12-25T08:28:34.536Z,95559.56
2022-12-25T08:31:07.615Z,95557.28
2022-12-25T08:33:36.999Z,95553.34
2022-12-25T08:36:05.117Z,95563.97
2022-12-25T08:38:34.149Z,95577.50
2022-12-25T08:41:01.781Z,95583.53
2022-12-25T08:43:29.225Z,95565.13
2022-12-25T08:45:56.734Z,95574.28
2022-12-25T08:48:24.445Z,95567.81
2022-12-25T08:50:53.673Z,95553.22
2022-12-25T08:53:21.761Z,95545.53
2022-12-25T08:55:51.006Z,95544.50
2022-12-25T08:58:18.745Z,95526.09
2022-12-25T09:00:46.233Z,95512.63
2022-12-25T09:03:13.680Z,95511.88
2022-12-25T09:05:41.118Z,95519.44
2022-12-25T09:08:09.288Z,95513.47
2022-12-25T09:10:37.580Z,95518.00
2022-12-25T09:13:06.446Z,95516.47
2022-12-25T09:15:33.953Z,95519.34
2022-12-25T09:18:01.440Z,95494.75
2022-12-25T09:20:29.421Z,95528.50
2022-12-25T09:22:56.862Z,95527.50
2022-12-25T09:25:24.348Z,95521.03
2022-12-25T09:27:51.843Z,95530.69
2022-12-25T09:30:20.851Z,95520.34
2022-12-25T09:32:48.395Z,95526.63
2022-12-25T09:35:17.447Z,95521.97
2022-12-25T09:37:44.893Z,95511.56
2022-12-25T09:40:16.250Z,95512.88
2022-12-25T09:42:44.897Z,95528.25
2022-12-25T09:45:18.231Z,95533.66
2022-12-25T09:47:49.290Z,95543.34
2022-12-25T09:50:20.448Z,95550.13
2022-12-25T09:52:53.813Z,95540.53
2022-12-25T09:55:24.126Z,95538.25
2022-12-25T09:57:53.683Z,95539.56
2022-12-25T10:00:23.173Z,95528.88
2022-12-25T10:03:15.805Z,95513.28
2022-12-25T10:06:11.767Z,95520.41
2022-12-25T10:08:52.782Z,95522.75
2022-12-25T10:11:32.294Z,95520.69
2022-12-25T10:14:10.807Z,95519.94
2022-12-25T10:16:47.475Z,95517.63
2022-12-25T10:19:32.291Z,95512.72
2022-12-25T10:22:06.083Z,95496.25
2022-12-25T10:24:37.716Z,95508.56
2022-12-25T10:27:12.301Z,95510.34
2022-12-25T10:29:39.947Z,95500.44
2022-12-25T10:32:07.419Z,95501.50
2022-12-25T10:34:38.399Z,95497.63
2022-12-25T10:37:05.837Z,95511.91
2022-12-25T10:39:33.273Z,95503.59
2022-12-25T10:42:10.285Z,95500.47
2022-12-25T10:44:37.991Z,95485.91
2022-12-25T10:47:06.180Z,95466.19
2022-12-25T10:49:37.823Z,95463.59
2022-12-25T10:52:19.775Z,95448.00
2022-12-25T10:54:47.336Z,95439.16
2022-12-25T10:57:17.045Z,95442.31
2022-12-25T10:59:46.386Z,95444.72
2022-12-25T11:02:17.052Z,95442.66
2022-12-25T11:04:46.114Z,95441.41
2022-12-25T11:07:22.663Z,95437.75
2022-12-25T11:09:52.646Z,95431.53
2022-12-25T11:12:22.410Z,95418.78
2022-12-25T11:14:55.365Z,95420.06
2022-12-25T11:17:24.999Z,95406.81
2022-12-25T11:19:56.049Z,95402.16
2022-12-25T11:22:23.767Z,95402.16
2022-12-25T11:24:51.499Z,95394.38
2022-12-25T11:27:23.091Z,95385.00
2022-12-25T11:29:55.831Z,95377.44
2022-12-25T11:32:28.707Z,95366.00
2022-12-25T11:34:58.806Z,95367.03
2022-12-25T11:37:31.723Z,95353.25
2022-12-25T11:39:59.865Z,95351.66
2022-12-25T11:42:32.219Z,95356.88
2022-12-25T11:45:04.875Z,95339.44
2022-12-25T11:47:37.414Z,95335.59
2022-12-25T11:50:16.708Z,95330.34
2022-12-25T11:52:47.636Z,95330.88
2022-12-25T11:55:20.375Z,95328.28
2022-12-25T11:57:54.430Z,95334.53
2022-12-25T12:00:29.868Z,95337.66
2022-12-25T12:03:00.440Z,95332.72
2022-12-25T12:05:35.084Z,95324.38
2022-12-25T12:08:04.665Z,95345.72
2022-12-25T12:10:57.504Z,95336.38
2022-12-25T12:13:36.543Z,95326.47
2022-12-25T12:16:05.858Z,95319.44
2022-12-25T12:18:34.809Z,95310.84
2022-12-25T12:21:07.506Z,95316.06
2022-12-25T12:23:38.221Z,95320.22
2022-12-25T12:26:05.930Z,95330.38
2022-12-25T12:28:44.211Z,95318.41
2022-12-25T12:31:11.774Z,95330.66
2022-12-25T12:33:43.648Z,95323.38
2022-12-25T12:36:15.587Z,95334.03
2022-12-25T12:38:44.982Z,95332.75
2022-12-25T12:41:14.524Z,95313.97
2022-12-25T12:43:43.992Z,95322.56
2022-12-25T12:46:17.749Z,95295.25
2022-12-25T12:48:48.325Z,95328.31
2022-12-25T12:51:30.925Z,95326.00
2022-12-25T12:54:20.788Z,95311.13
2022-12-25T12:56:59.263Z,95317.38
2022-12-25T12:59:28.407Z,95323.13
2022-12-25T13:02:15.627Z,95323.91
2022-12-25T13:04:58.343Z,95313.22
2022-12-25T13:07:44.286Z,95328.59
2022-12-25T13:10:23.734Z,95326.00
2022-12-25T13:13:00.688Z,95327.56
2022-12-25T13:15:31.103Z,95322.06
2022-12-25T13:18:03.729Z,95319.22
2022-12-25T13:20:40.659Z,95289.53
2022-12-25T13:26:05.031Z,95310.09
2022-12-25T13:28:34.125Z,95296.28
2022-12-25T13:31:07.875Z,95305.16
2022-12-25T13:33:35.778Z,95308.53
2022-12-25T13:36:04.125Z,95314.25
2022-12-25T13:38:31.996Z,95313.72
2022-12-25T13:41:17.659Z,95326.50
2022-12-25T13:43:46.859Z,95317.13
2022-12-25T13:46:15.178Z,95318.41
2022-12-25T13:48:43.219Z,95310.34
2022-12-25T13:51:16.938Z,95336.16
2022-12-25T13:53:44.828Z,95344.25
2022-12-25T13:56:15.918Z,95343.72
2022-12-25T13:58:44.236Z,95338.22
2022-12-25T14:01:18.450Z,95303.59
2022-12-25T14:03:48.319Z,95345.00
2022-12-25T14:06:19.653Z,95347.09
2022-12-25T14:08:48.142Z,95325.47
2022-12-25T14:11:17.568Z,95322.59
2022-12-25T14:13:47.831Z,95334.06
2022-12-25T14:16:19.192Z,95327.28
2022-12-25T14:18:54.997Z,95331.97
2022-12-25T14:21:29.207Z,95326.75
2022-12-25T14:23:57.255Z,95331.22
2022-12-25T14:26:27.357Z,95316.09
2022-12-25T14:28:58.852Z,95340.06
2022-12-25T14:31:29.638Z,95351.53
2022-12-25T14:33:58.706Z,95345.53
2022-12-25T14:36:26.865Z,95343.72
2022-12-25T14:38:58.795Z,95306.72
2022-12-25T14:41:34.106Z,95303.59
2022-12-25T14:44:03.151Z,95311.13
2022-12-25T14:46:34.173Z,95321.56
2022-12-25T14:49:02.954Z,95322.88
2022-12-25T14:51:31.826Z,95315.56
2022-12-25T14:54:02.480Z,95317.66
2022-12-25T14:56:37.817Z,95320.78
2022-12-25T14:59:07.102Z,95308.53
2022-12-25T15:01:39.737Z,95306.72
2022-12-25T15:04:14.154Z,95323.41
2022-12-25T15:06:54.298Z,95312.97
2022-12-25T15:09:22.379Z,95316.88
2022-12-25T15:11:50.216Z,95303.84
2022-12-25T15:14:17.893Z,95301.50
2022-12-25T15:16:49.033Z,95297.34
2022-12-25T15:19:25.206Z,95299.94
2022-12-25T15:21:53.376Z,95302.28
2022-12-25T15:24:20.805Z,95291.31
2022-12-25T15:26:48.357Z,95305.91
2022-12-25T15:29:15.904Z,95299.66
2022-12-25T15:31:43.377Z,95305.13
2022-12-25T15:34:19.300Z,95293.69
2022-12-25T15:36:46.774Z,95292.63
2022-12-25T15:39:14.307Z,95296.53
2022-12-25T15:41:59.387Z,95284.53
2022-12-25T15:44:26.883Z,95291.81
2022-12-25T15:46:54.541Z,95295.47
2022-12-25T15:49:23.352Z,95287.41
2022-12-25T15:51:50.799Z,95287.13
2022-12-25T15:54:18.228Z,95293.94
2022-12-25T15:56:47.591Z,95299.91
2022-12-25T15:59:16.789Z,95292.59
2022-12-25T16:01:48.124Z,95275.44
2022-12-25T16:04:15.669Z,95280.63
2022-12-25T16:06:44.628Z,95274.38
2022-12-25T16:09:12.645Z,95282.19
2022-12-25T16:11:40.653Z,95256.94
2022-12-25T16:14:08.373Z,95289.50
2022-12-25T16:16:36.028Z,95277.75
2022-12-25T16:19:03.932Z,95292.09
2022-12-25T16:21:38.077Z,95284.81
2022-12-25T16:24:08.062Z,95279.59
2022-12-25T16:26:35.548Z,95299.13
2022-12-25T16:29:07.183Z,95291.59
2022-12-25T16:31:35.441Z,95297.56
2022-12-25T16:34:03.010Z,95304.34
2022-12-25T16:36:30.461Z,95308.25
2022-12-25T16:38:57.882Z,95309.03
2022-12-25T16:41:26.764Z,95310.34
2022-12-25T16:43:54.202Z,95305.38
2022-12-25T16:46:23.738Z,95323.63
2022-12-25T16:48:51.218Z,95312.44
2022-12-25T16:51:20.918Z,95319.19
2022-12-25T16:53:48.641Z,95302.00
2022-12-25T16:56:18.002Z,95310.59
2022-12-25T16:58:47.747Z,95311.38
2022-12-25T17:01:18.025Z,95319.72
2022-12-25T17:03:45.616Z,95309.56
2022-12-25T17:06:19.204Z,95300.19
2022-12-25T17:08:47.430Z,95303.59
2022-12-25T17:11:15.757Z,95310.59
2022-12-25T17:13:48.484Z,95333.81
2022-12-25T17:16:17.557Z,95321.56
2022-12-25T17:18:45.489Z,95326.00
2022-12-25T17:21:14.478Z,95332.25
2022-12-25T17:23:41.947Z,95330.94
2022-12-25T17:26:09.630Z,95331.97
2022-12-25T17:28:37.107Z,95321.03
2022-12-25T17:31:07.979Z,95327.81
2022-12-25T17:33:37.140Z,95319.75
2022-12-25T17:36:05.550Z,95323.41
2022-12-25T17:38:34.288Z,95319.75
2022-12-25T17:41:03.907Z,95324.69
2022-12-25T17:43:31.341Z,95312.16
2022-12-25T17:46:04.177Z,95320.78
2022-12-25T17:48:33.002Z,95338.00
2022-12-25T17:51:01.871Z,95332.50
2022-12-25T17:53:29.341Z,95324.44
2022-12-25T17:55:58.170Z,95265.28
2022-12-25T17:58:26.354Z,95338.00
2022-12-25T18:00:54.617Z,95295.25
2022-12-25T18:03:23.053Z,95311.66
2022-12-25T18:05:52.190Z,95308.81
2022-12-25T18:08:19.816Z,95266.06
2022-12-25T18:10:47.425Z,95297.59
2022-12-25T18:13:15.053Z,95279.34
2022-12-25T18:15:44.640Z,95305.66
2022-12-25T18:18:12.173Z,95305.66
2022-12-25T18:20:42.320Z,95287.16
2022-12-25T18:23:11.401Z,95286.91
2022-12-25T18:25:41.453Z,95302.03
2022-12-25T18:28:09.455Z,95285.59
2022-12-25T18:30:39.822Z,95284.03
2022-12-25T18:33:07.531Z,95297.84
2022-12-25T18:35:35.680Z,95299.16
2022-12-25T18:38:03.249Z,95302.78
2022-12-25T18:40:41.087Z,95307.25
2022-12-25T18:43:09.172Z,95300.72
2022-12-25T18:45:39.742Z,95264.00
2022-12-25T18:48:07.586Z,95266.31
2022-12-25T18:50:39.027Z,95288.72
2022-12-25T18:53:07.739Z,95280.91
2022-12-25T18:55:36.714Z,95260.59
2022-12-25T18:58:04.315Z,95266.31
2022-12-25T19:00:34.630Z,95277.03
2022-12-25T19:03:03.351Z,95252.25
2022-12-25T19:05:30.974Z,95241.34
2022-12-25T19:07:58.468Z,95281.44
2022-12-25T19:10:26.042Z,95287.97
2022-12-25T19:12:55.084Z,95289.25
2022-12-25T19:15:22.577Z,95274.13
2022-12-25T19:17:50.193Z,95282.47
2022-12-25T19:20:17.791Z,95285.88
2022-12-25T19:22:47.132Z,95289.00
2022-12-25T19:25:14.821Z,95300.97
2022-12-25T19:27:45.168Z,95291.31
2022-12-25T19:30:14.712Z,95310.88
2022-12-25T19:32:44.496Z,95278.56
2022-12-25T19:35:12.093Z,95305.91
2022-12-25T19:37:39.621Z,95298.63
2022-12-25T19:40:08.058Z,95279.09
2022-12-25T19:42:35.751Z,95298.91
2022-12-25T19:45:05.931Z,95295.25
2022-12-25T19:47:34.813Z,95300.19
2022-12-25T19:50:06.331Z,95290.78
2022-12-25T19:52:34.601Z,95315.03
2022-12-25T19:55:02.073Z,95311.66
2022-12-25T19:57:29.607Z,95315.81
2022-12-25T19:59:57.575Z,95310.34
2022-12-25T20:02:25.234Z,95302.25
2022-12-25T20:04:54.145Z,95299.38
2022-12-25T20:07:24.236Z,95313.47
2022-12-25T20:09:51.769Z,95312.16
2022-12-25T20:12:19.262Z,95319.47
2022-12-25T20:14:46.949Z,95323.38
2022-12-25T20:17:23.384Z,95332.25
2022-12-25T20:19:50.939Z,95329.13
2022-12-25T20:22:19.792Z,95331.19
2022-12-25T20:24:48.989Z,95326.75
2022-12-25T20:27:16.841Z,95297.59
2022-12-25T20:29:44.458Z,95290.56
2022-12-25T20:32:12.156Z,95318.19
2022-12-25T20:34:39.760Z,95327.56
2022-12-25T20:37:07.326Z,95321.84
2022-12-25T20:39:36.220Z,95317.66
2022-12-25T20:42:03.881Z,95302.78
2022-12-25T20:44:31.454Z,95329.38
2022-12-25T20:47:01.042Z,95306.72
2022-12-25T20:49:32.232Z,95315.06
2022-12-25T20:52:05.487Z,95301.00
2022-12-25T20:54:33.889Z,95333.53
2022-12-25T20:57:03.100Z,95314.25
2022-12-25T20:59:36.914Z,95334.88
2022-12-25T21:02:05.289Z,95299.94
2022-12-25T21:04:32.986Z,95344.47
2022-12-25T21:07:01.120Z,95339.28
2022-12-25T21:09:28.609Z,95336.16
2022-12-25T21:11:56.105Z,95326.00
2022-12-25T21:14:26.041Z,95316.88
2022-12-25T21:16:53.684Z,95329.38
2022-12-25T21:19:21.347Z,95351.53
2022-12-25T21:21:50.676Z,95304.09
2022-12-25T21:24:18.193Z,95340.59
2022-12-25T21:26:48.116Z,95334.34
2022-12-25T21:29:16.555Z,95331.97
2022-12-25T21:32:03.134Z,95346.31
2022-12-25T21:34:30.888Z,95349.47
2022-12-25T21:36:58.474Z,95377.31
2022-12-25T21:39:26.026Z,95366.66
2022-12-25T21:41:53.551Z,95352.56
2022-12-25T21:44:21.074Z,95368.97
2022-12-25T21:46:49.965Z,95352.81
2022-12-25T21:49:37.455Z,95353.09
2022-12-25T21:52:07.060Z,95368.47
2022-12-25T21:54:34.998Z,95341.63
2022-12-25T21:57:03.010Z,95358.03
2022-12-25T21:59:30.626Z,95352.31
2022-12-25T22:02:00.322Z,95362.72
2022-12-25T22:04:28.017Z,95371.34
2022-12-25T22:07:13.221Z,95383.88
2022-12-25T22:09:40.713Z,95382.53
2022-12-25T22:12:31.987Z,95396.09
2022-12-25T22:15:06.338Z,95361.16
2022-12-25T22:17:55.262Z,95400.53
2022-12-25T22:20:25.063Z,95354.38
2022-12-25T22:22:53.587Z,95410.97
2022-12-25T22:25:22.144Z,95410.97
2022-12-25T22:27:50.533Z,95415.66
2022-12-25T22:30:20.049Z,95411.47
2022-12-25T22:32:49.294Z,95427.88
2022-12-25T22:35:17.444Z,95434.41
2022-12-25T22:37:45.543Z,95434.66
2022-12-25T22:40:15.581Z,95433.88
2022-12-25T22:42:43.368Z,95423.97
2022-12-25T22:45:12.261Z,95427.63
2022-12-25T22:47:39.808Z,95428.38
2022-12-25T22:50:09.926Z,95420.53
2022-12-25T22:52:38.013Z,95443.75
2022-12-25T22:55:07.478Z,95428.66
2022-12-25T22:57:34.986Z,95427.84
2022-12-25T23:00:02.688Z,95413.25
2022-12-25T23:02:30.479Z,95421.34
2022-12-25T23:04:58.172Z,95420.03
2022-12-25T23:07:27.053Z,95418.25
2022-12-25T23:09:54.505Z,95409.41
2022-12-25T23:12:42.057Z,95426.31
2022-12-25T23:15:10.425Z,95430.25
2022-12-25T23:17:55.536Z,95401.03
2022-12-25T23:20:40.718Z,95423.47
2022-12-25T23:23:31.728Z,95402.34
2022-12-25T23:26:08.607Z,95420.34
2022-12-25T23:28:54.063Z,95404.41
2022-12-25T23:31:26.199Z,95421.91
2022-12-25T23:33:53.706Z,95426.59
2022-12-25T23:36:21.238Z,95416.69
2022-12-25T23:38:50.093Z,95422.94
2022-12-25T23:41:17.601Z,95419.00
2022-12-25T23:43:45.097Z,95408.88
2022-12-25T23:46:12.573Z,95409.13
2022-12-25T23:48:40.052Z,95413.28
2022-12-25T23:51:08.773Z,95413.28
2022-12-25T23:53:36.610Z,95410.16
2022-12-25T23:56:06.748Z,95409.13
2022-12-25T23:58:34.431Z,95412.75
